createdAt,value
2023-05-12T00:00:15.283Z,99674.72
2023-05-12T00:05:18.751Z,99690.41
2023-05-12T00:10:21.080Z,99694.06
2023-05-12T00:15:23.261Z,99694.72
2023-05-12T00:20:24.933Z,99684.34
2023-05-12T00:25:26.617Z,99690.22
2023-05-12T00:30:28.240Z,99688.53
2023-05-12T00:35:29.934Z,99693.22
2023-05-12T00:40:31.592Z,99689.53
2023-05-12T00:45:33.455Z,99691.34
2023-05-12T00:50:35.160Z,99691.22
2023-05-12T00:55:37.497Z,99689.16
2023-05-12T01:00:39.751Z,99690.16
2023-05-12T01:06:08.489Z,99692.19
2023-05-12T01:11:10.718Z,99690.56
2023-05-12T01:16:15.328Z,99689.38
2023-05-12T01:21:18.088Z,99689.09
2023-05-12T01:26:20.141Z,99685.38
2023-05-12T01:31:22.320Z,99693.09
2023-05-12T01:36:23.946Z,99689.94
2023-05-12T01:41:26.016Z,99688.78
2023-05-12T01:46:27.730Z,99693.47
2023-05-12T01:51:33.217Z,99701.31
2023-05-12T01:56:36.549Z,99693.34
2023-05-12T02:01:38.255Z,99702.13
2023-05-12T02:06:40.986Z,99696.34
2023-05-12T02:11:42.632Z,99704.06
2023-05-12T02:16:44.408Z,99706.50
2023-05-12T02:21:46.287Z,99697.69
2023-05-12T02:26:47.955Z,99707.75
2023-05-12T02:31:49.690Z,99707.16
2023-05-12T02:36:52.405Z,99701.78
2023-05-12T02:41:54.221Z,99696.19
2023-05-12T02:46:58.077Z,99700.41
2023-05-12T02:51:59.690Z,99699.38
2023-05-12T02:57:05.057Z,99694.19
2023-05-12T03:02:07.155Z,99701.78
2023-05-12T03:07:09.557Z,99696.50
2023-05-12T03:12:11.289Z,99702.19
2023-05-12T03:17:13.021Z,99693.25
2023-05-12T03:22:14.941Z,99704.88
2023-05-12T03:27:16.616Z,99708.88
2023-05-12T03:32:18.290Z,99717.44
2023-05-12T03:37:19.973Z,99713.53
2023-05-12T03:42:21.738Z,99717.69
2023-05-12T03:47:23.633Z,99713.31
2023-05-12T03:52:25.452Z,99724.59
2023-05-12T03:57:27.091Z,99719.28
2023-05-12T04:02:29.084Z,99718.94
2023-05-12T04:07:30.769Z,99723.56
2023-05-12T04:12:32.870Z,99713.53
2023-05-12T04:17:35.180Z,99726.44
2023-05-12T04:22:36.853Z,99724.69
2023-05-12T04:27:38.916Z,99733.88
2023-05-12T04:32:41.328Z,99727.63
2023-05-12T04:37:43.318Z,99726.97
2023-05-12T04:42:45.237Z,99741.97
2023-05-12T04:47:48.688Z,99736.47
2023-05-12T04:52:50.446Z,99738.31
2023-05-12T04:57:52.201Z,99735.38
2023-05-12T05:02:54.567Z,99736.88
2023-05-12T05:07:56.662Z,99738.78
2023-05-12T05:12:58.636Z,99742.78
2023-05-12T05:18:01.959Z,99744.94
2023-05-12T05:23:04.308Z,99747.44
2023-05-12T05:28:06.620Z,99755.16
2023-05-12T05:33:08.608Z,99757.47
2023-05-12T05:38:10.575Z,99753.63
2023-05-12T05:43:12.815Z,99757.38
2023-05-12T05:48:14.879Z,99757.25
2023-05-12T05:53:18.592Z,99768.88
2023-05-12T05:58:20.491Z,99764.84
2023-05-12T06:03:23.610Z,99763.28
2023-05-12T06:08:25.380Z,99774.25
2023-05-12T06:13:29.147Z,99772.13
2023-05-12T06:18:30.889Z,99771.31
2023-05-12T06:23:32.578Z,99779.78
2023-05-12T06:28:34.394Z,99778.16
2023-05-12T06:33:36.829Z,99780.22
2023-05-12T06:38:38.503Z,99777.72
2023-05-12T06:43:40.116Z,99787.03
2023-05-12T06:48:42.090Z,99785.06
2023-05-12T06:53:43.764Z,99783.56
2023-05-12T06:58:45.517Z,99781.78
2023-05-12T07:03:47.160Z,99788.06
2023-05-12T07:08:48.897Z,99774.66
2023-05-12T07:13:51.194Z,99779.28
2023-05-12T07:18:52.931Z,99773.00
2023-05-12T07:23:54.674Z,99779.53
2023-05-12T07:28:56.454Z,99770.53
2023-05-12T07:33:58.118Z,99768.16
2023-05-12T07:38:59.794Z,99771.94
2023-05-12T07:44:02.346Z,99768.53
2023-05-12T07:49:03.982Z,99763.34
2023-05-12T07:54:07.213Z,99774.44
2023-05-12T07:59:08.859Z,99773.53
2023-05-12T08:04:10.750Z,99772.81
2023-05-12T08:09:12.575Z,99764.03
2023-05-12T08:14:14.175Z,99768.25
2023-05-12T08:19:15.935Z,99760.44
2023-05-12T08:24:17.913Z,99766.84
2023-05-12T08:29:19.517Z,99767.63
2023-05-12T08:34:21.267Z,99755.41
2023-05-12T08:39:23.001Z,99752.59
2023-05-12T08:44:25.421Z,99759.50
2023-05-12T08:49:29.494Z,99759.47
2023-05-12T08:54:33.435Z,99757.84
2023-05-12T08:59:37.947Z,99751.72
2023-05-12T09:04:39.745Z,99761.28
2023-05-12T09:09:45.735Z,99756.81
2023-05-12T09:14:53.830Z,99756.84
2023-05-12T09:19:55.569Z,99757.19
2023-05-12T09:24:57.372Z,99753.53
2023-05-12T09:29:59.963Z,99754.16
2023-05-12T09:35:11.410Z,99748.78
2023-05-12T09:40:13.898Z,99759.00
2023-05-12T09:45:15.640Z,99744.00
2023-05-12T09:50:18.919Z,99751.97
2023-05-12T09:55:21.125Z,99747.53
2023-05-12T10:00:37.007Z,99750.31
2023-05-12T10:05:50.924Z,99752.47
2023-05-12T10:10:53.922Z,99745.34
2023-05-12T10:15:57.624Z,99749.16
2023-05-12T10:21:00.719Z,99746.38
2023-05-12T10:26:03.432Z,99747.81
2023-05-12T10:31:08.263Z,99745.03
2023-05-12T10:36:19.730Z,99750.75
2023-05-12T10:41:31.813Z,99746.53
2023-05-12T10:46:33.609Z,99749.56
2023-05-12T10:51:52.266Z,99748.56
2023-05-12T10:56:58.697Z,99753.63
2023-05-12T11:02:01.787Z,99749.09
2023-05-12T11:07:08.037Z,99734.91
2023-05-12T11:12:12.103Z,99742.16
2023-05-12T11:17:15.070Z,99733.19
2023-05-12T11:22:19.905Z,99741.19
2023-05-12T11:27:23.466Z,99743.72
2023-05-12T11:32:25.753Z,99734.09
2023-05-12T11:37:27.660Z,99731.22
2023-05-12T11:42:29.360Z,99736.75
2023-05-12T11:47:32.989Z,99747.25
2023-05-12T11:52:34.706Z,99751.31
2023-05-12T11:57:36.490Z,99747.84
2023-05-12T12:02:39.936Z,99740.38
2023-05-12T12:07:41.738Z,99752.28
2023-05-12T12:12:44.473Z,99759.03
2023-05-12T12:17:46.178Z,99751.31
2023-05-12T12:22:47.814Z,99756.78
2023-05-12T12:27:49.537Z,99771.19
2023-05-12T12:32:51.292Z,99774.06
2023-05-12T12:37:53.043Z,99770.16
2023-05-12T12:42:54.811Z,99771.97
2023-05-12T12:47:56.559Z,99774.72
2023-05-12T12:52:58.222Z,99773.59
2023-05-12T12:57:59.857Z,99765.19
2023-05-12T13:03:01.812Z,99763.88
2023-05-12T13:08:03.842Z,99767.16
2023-05-12T13:13:06.203Z,99757.81
2023-05-12T13:18:08.021Z,99761.00
2023-05-12T13:23:09.677Z,99761.13
2023-05-12T13:28:11.298Z,99749.69
2023-05-12T13:33:12.967Z,99759.91
2023-05-12T13:38:14.616Z,99758.63
2023-05-12T13:43:16.322Z,99753.66
2023-05-12T13:48:17.980Z,99762.25
2023-05-12T13:53:19.693Z,99758.75
2023-05-12T13:58:21.289Z,99768.50
2023-05-12T14:03:23.213Z,99753.31
2023-05-12T14:08:24.903Z,99760.94
2023-05-12T14:13:26.518Z,99761.78
2023-05-12T14:18:28.182Z,99764.41
2023-05-12T14:23:29.856Z,99760.63
2023-05-12T14:28:31.541Z,99756.03
2023-05-12T14:33:33.297Z,99766.28
2023-05-12T14:38:35.208Z,99776.00
2023-05-12T14:43:37.246Z,99789.78
2023-05-12T14:48:38.847Z,99802.38
2023-05-12T14:53:40.515Z,99806.34
2023-05-12T14:58:42.176Z,99807.03
2023-05-12T15:03:44.415Z,99804.78
2023-05-12T15:08:46.080Z,99798.59
2023-05-12T15:13:47.803Z,99794.53
2023-05-12T15:18:50.197Z,99789.09
2023-05-12T15:23:51.841Z,99783.38
2023-05-12T15:28:53.476Z,99773.53
2023-05-12T15:33:56.520Z,99773.03
2023-05-12T15:38:58.178Z,99781.47
2023-05-12T15:43:59.887Z,99779.72
2023-05-12T15:49:01.904Z,99769.00
2023-05-12T15:54:05.567Z,99766.06
2023-05-12T15:59:08.061Z,99763.13
2023-05-12T16:04:09.845Z,99763.19
2023-05-12T16:09:11.696Z,99759.66
2023-05-12T16:14:14.035Z,99787.38
2023-05-12T16:19:15.846Z,99825.22
2023-05-12T16:24:17.750Z,99832.78
2023-05-12T16:29:19.371Z,99785.13
2023-05-12T16:34:21.303Z,99775.69
2023-05-12T16:39:22.959Z,99774.34
2023-05-12T16:44:24.741Z,99782.09
2023-05-12T16:49:26.387Z,99792.09
2023-05-12T16:54:27.999Z,99806.06
2023-05-12T16:59:32.336Z,99823.97
2023-05-12T17:04:34.492Z,99830.31
2023-05-12T17:09:36.465Z,99831.38
2023-05-12T17:14:38.394Z,99838.16
2023-05-12T17:19:42.085Z,99845.84
2023-05-12T17:24:44.593Z,99850.28
2023-05-12T17:29:46.367Z,99849.91
2023-05-12T17:34:50.560Z,99849.91
2023-05-12T17:39:52.553Z,99839.88
2023-05-12T17:44:54.200Z,99850.13
2023-05-12T17:49:56.613Z,99846.56
2023-05-12T17:54:58.405Z,99852.59
2023-05-12T18:00:00.554Z,99858.66
2023-05-12T18:05:02.411Z,99850.53
2023-05-12T18:10:09.994Z,99852.00
2023-05-12T18:15:11.896Z,99849.13
2023-05-12T18:20:13.750Z,99845.72
2023-05-12T18:25:15.466Z,99849.28
2023-05-12T18:30:17.198Z,99852.59
2023-05-12T18:35:19.669Z,99859.03
2023-05-12T18:40:21.926Z,99863.50
2023-05-12T18:45:23.868Z,99868.84
2023-05-12T18:50:25.643Z,99878.09
2023-05-12T18:55:27.255Z,99877.75
2023-05-12T19:00:31.990Z,99888.31
2023-05-12T19:05:33.622Z,99886.63
2023-05-12T19:10:36.716Z,99895.78
2023-05-12T19:15:40.260Z,99904.88
2023-05-12T19:20:41.885Z,99913.97
2023-05-12T19:25:43.697Z,99918.16
2023-05-12T19:30:45.376Z,99918.53
2023-05-12T19:35:47.543Z,99931.69
2023-05-12T19:40:49.170Z,99938.88
2023-05-12T19:45:50.938Z,99945.69
2023-05-12T19:50:53.996Z,99944.31
2023-05-12T19:55:55.654Z,99945.63
2023-05-12T20:00:57.353Z,99953.66
2023-05-12T20:05:59.036Z,99955.59
2023-05-12T20:11:00.685Z,99955.44
2023-05-12T20:16:02.699Z,99961.56
2023-05-12T20:21:04.404Z,99960.44
2023-05-12T20:26:06.746Z,99969.56
2023-05-12T20:31:10.173Z,99973.44
2023-05-12T20:36:11.967Z,99967.72
2023-05-12T20:41:13.847Z,99960.72
2023-05-12T20:46:15.670Z,99960.06
2023-05-12T20:51:17.395Z,99964.75
2023-05-12T20:56:19.791Z,99960.03
2023-05-12T21:01:21.470Z,99970.91
2023-05-12T21:06:23.178Z,99975.19
2023-05-12T21:11:24.819Z,99980.03
2023-05-12T21:16:26.503Z,99972.28
2023-05-12T21:21:28.709Z,99983.44
2023-05-12T21:26:30.348Z,99981.97
2023-05-12T21:31:32.131Z,99987.06
2023-05-12T21:36:33.740Z,99987.81
2023-05-12T21:41:35.837Z,99982.25
2023-05-12T21:46:37.816Z,99997.59
2023-05-12T21:51:39.493Z,100004.53
2023-05-12T21:56:41.099Z,100016.75
2023-05-12T22:01:42.747Z,100016.53
2023-05-12T22:06:44.598Z,100020.84
2023-05-12T22:11:46.468Z,100023.44
2023-05-12T22:16:48.119Z,100026.50
2023-05-12T22:21:49.772Z,100037.56
2023-05-12T22:26:51.597Z,100042.28
2023-05-12T22:31:53.209Z,100045.63
2023-05-12T22:36:54.896Z,100042.78
2023-05-12T22:41:56.567Z,100043.63
2023-05-12T22:46:58.254Z,100040.94
2023-05-12T22:51:59.913Z,100039.56
2023-05-12T22:57:01.554Z,100042.03
2023-05-12T23:02:03.168Z,100053.75
2023-05-12T23:07:07.048Z,100062.06
2023-05-12T23:12:10.631Z,100057.44
2023-05-12T23:17:12.304Z,100066.06
2023-05-12T23:22:13.919Z,100063.84
2023-05-12T23:27:15.591Z,100057.16
2023-05-12T23:32:17.340Z,100055.88
2023-05-12T23:37:21.854Z,100059.41
2023-05-12T23:42:23.445Z,100061.00
2023-05-12T23:47:25.152Z,100068.88
2023-05-12T23:52:26.822Z,100069.25
2023-05-12T23:57:28.480Z,100075.13
